Time;durP1;ratioP1;P1;durP2;ratioP2;P2;SDS_P1;SDS_P2;PMS_P1;PMS_P2;Temp;Humidity;BMP_temperature;BMP_pressure;BME280_temperature;BME280_humidity;BME280_pressure;Samples;Min_cycle;Max_cycle;Signal;HPM_P1;HPM_P2
2022/12/25 00:01:31;;;;;;;11.07;4.80;;;9.90;99.90;;;;;;4978526;28;20465;-77
2022/12/25 00:03:58;;;;;;;14.30;4.70;;;9.90;99.90;;;;;;4978236;28;20550;-77
2022/12/25 00:06:24;;;;;;;12.70;5.83;;;9.90;99.90;;;;;;4978232;28;20460;-77
2022/12/25 00:08:53;;;;;;;11.17;4.57;;;9.90;99.90;;;;;;4978230;28;20467;-77
2022/12/25 00:11:20;;;;;;;10.20;4.93;;;9.90;99.90;;;;;;4978256;28;20452;-78
2022/12/25 00:13:48;;;;;;;13.10;4.50;;;9.90;99.90;;;;;;4978165;28;20871;-77
2022/12/25 00:16:17;;;;;;;15.60;5.10;;;9.90;99.90;;;;;;4978033;28;20496;-77
2022/12/25 00:18:44;;;;;;;15.87;5.53;;;10.00;99.90;;;;;;4978106;28;20460;-77
2022/12/25 00:21:12;;;;;;;15.13;5.30;;;10.00;99.90;;;;;;4978173;28;20457;-77
2022/12/25 00:23:38;;;;;;;10.50;5.03;;;9.90;99.90;;;;;;4977690;28;20997;-78
2022/12/25 00:26:08;;;;;;;7.20;4.30;;;9.90;99.90;;;;;;4977720;28;21008;-77
2022/12/25 00:28:35;;;;;;;6.80;4.30;;;10.00;99.90;;;;;;4977789;28;20459;-77
2022/12/25 00:31:05;;;;;;;6.53;3.80;;;10.00;99.90;;;;;;4977736;28;20960;-77
2022/12/25 00:33:31;;;;;;;9.40;4.40;;;10.00;99.90;;;;;;4979735;28;20435;-78
2022/12/25 00:35:59;;;;;;;9.80;4.33;;;9.90;99.90;;;;;;4978723;28;20500;-78
2022/12/25 00:38:26;;;;;;;11.13;5.27;;;10.00;99.90;;;;;;4978973;28;20439;-77
2022/12/25 00:40:52;;;;;;;13.03;4.97;;;10.00;99.90;;;;;;4978154;28;20461;-77
2022/12/25 00:43:21;;;;;;;9.10;4.47;;;10.00;99.90;;;;;;4977706;28;20468;-77
2022/12/25 00:45:55;;;;;;;9.50;5.00;;;10.10;99.90;;;;;;4977754;28;21015;-77
2022/12/25 00:48:23;;;;;;;7.63;5.17;;;10.10;99.90;;;;;;4978179;28;20473;-77
2022/12/25 00:50:53;;;;;;;13.93;4.70;;;10.10;99.90;;;;;;4978063;28;20919;-77
2022/12/25 00:53:20;;;;;;;11.67;5.30;;;10.10;99.90;;;;;;4977827;28;20980;-77
2022/12/25 00:55:51;;;;;;;15.93;5.70;;;10.20;99.90;;;;;;4977225;28;20499;-77
2022/12/25 00:58:18;;;;;;;13.60;5.13;;;10.20;99.90;;;;;;4978425;28;20441;-77
2022/12/25 01:00:46;;;;;;;9.33;5.87;;;10.20;99.90;;;;;;4977405;28;20459;-77
2022/12/25 01:03:13;;;;;;;13.40;5.60;;;10.20;99.90;;;;;;4977487;28;20457;-77
2022/12/25 01:05:40;;;;;;;12.30;5.17;;;10.20;99.90;;;;;;4977286;28;20985;-77
2022/12/25 01:08:07;;;;;;;10.47;5.00;;;10.30;99.90;;;;;;4977633;28;20453;-77
2022/12/25 01:10:34;;;;;;;10.13;6.03;;;10.30;99.90;;;;;;4977581;28;20986;-77
2022/12/25 01:13:01;;;;;;;10.63;5.63;;;10.30;99.90;;;;;;4977450;28;20484;-77
2022/12/25 01:15:28;;;;;;;11.27;5.50;;;10.30;99.90;;;;;;4977125;28;20495;-77
2022/12/25 01:17:56;;;;;;;15.77;5.90;;;10.30;99.90;;;;;;4977164;28;20837;-77
2022/12/25 01:20:22;;;;;;;12.03;5.43;;;10.30;99.90;;;;;;4977172;28;20484;-77
2022/12/25 01:22:49;;;;;;;9.20;5.90;;;10.30;99.90;;;;;;4977023;28;20460;-77
2022/12/25 01:25:16;;;;;;;17.77;5.80;;;10.30;99.90;;;;;;4977619;28;20484;-77
2022/12/25 01:27:43;;;;;;;11.50;5.37;;;10.30;99.90;;;;;;4977711;28;20459;-77
2022/12/25 01:30:11;;;;;;;11.10;5.50;;;10.30;99.90;;;;;;4976983;28;20461;-77
2022/12/25 01:32:37;;;;;;;16.13;6.07;;;10.30;99.90;;;;;;4976730;28;20983;-77
2022/12/25 01:35:06;;;;;;;7.77;5.20;;;10.30;99.90;;;;;;4976890;28;20472;-77
2022/12/25 01:37:33;;;;;;;15.83;5.60;;;10.30;99.90;;;;;;4976794;28;20503;-78
2022/12/25 01:39:59;;;;;;;6.77;5.20;;;10.30;99.90;;;;;;4976713;28;20461;-78
2022/12/25 01:42:26;;;;;;;9.07;6.00;;;10.30;99.90;;;;;;4976646;28;20459;-77
2022/12/25 01:45:32;;;;;;;11.83;5.73;;;10.30;99.90;;;;;;4976578;28;20848;-77
2022/12/25 01:47:59;;;;;;;8.13;6.03;;;10.30;99.90;;;;;;4976642;28;20448;-78
2022/12/25 01:50:28;;;;;;;12.20;6.10;;;10.20;99.90;;;;;;4976512;28;20985;-77
2022/12/25 01:52:56;;;;;;;10.33;6.17;;;10.30;99.90;;;;;;4976101;28;20965;-78
2022/12/25 01:55:23;;;;;;;10.70;5.30;;;10.30;99.90;;;;;;4976323;28;20476;-77
2022/12/25 01:57:49;;;;;;;11.83;6.20;;;10.30;99.90;;;;;;4976546;28;20448;-77
2022/12/25 02:00:17;;;;;;;14.40;5.87;;;10.30;99.90;;;;;;4976418;28;20463;-77
2022/12/25 02:02:44;;;;;;;9.77;5.87;;;10.30;99.90;;;;;;4978975;28;20455;-77
2022/12/25 02:05:17;;;;;;;8.90;5.90;;;10.30;99.90;;;;;;4986498;28;20520;-77
2022/12/25 02:07:48;;;;;;;12.97;6.73;;;10.30;99.90;;;;;;4982659;28;20436;-77
2022/12/25 02:10:14;;;;;;;13.23;6.13;;;10.30;99.90;;;;;;4979312;28;20451;-77
2022/12/25 02:12:43;;;;;;;12.90;6.07;;;10.20;99.90;;;;;;4978359;28;20459;-78
2022/12/25 02:15:13;;;;;;;9.77;6.63;;;10.20;99.90;;;;;;4976590;28;20502;-78
2022/12/25 02:17:45;;;;;;;13.47;5.47;;;10.20;99.90;;;;;;4976721;28;20495;-77
2022/12/25 02:20:36;;;;;;;8.63;5.50;;;10.30;99.90;;;;;;4977259;28;20450;-77
2022/12/25 02:23:23;;;;;;;13.23;5.93;;;10.20;99.90;;;;;;4976094;28;20447;-77
2022/12/25 02:26:05;;;;;;;9.20;5.80;;;10.20;99.90;;;;;;4975905;28;20859;-77
2022/12/25 02:28:38;;;;;;;11.90;6.20;;;10.20;99.90;;;;;;4976164;28;20436;-77
2022/12/25 02:31:10;;;;;;;10.97;6.70;;;10.20;99.90;;;;;;4975638;28;20444;-77
2022/12/25 02:36:34;;;;;;;12.83;6.07;;;10.20;99.90;;;;;;4975288;28;20485;-77
2022/12/25 02:41:52;;;;;;;13.37;6.40;;;10.20;99.90;;;;;;4975791;28;20412;-77
2022/12/25 03:06:45;;;;;;;10.10;5.50;;;10.20;99.90;;;;;;4975259;28;20766;-77
2022/12/25 03:12:08;;;;;;;10.00;5.17;;;10.20;99.90;;;;;;4975542;28;20757;-78
2022/12/25 03:17:20;;;;;;;6.27;4.10;;;10.20;99.90;;;;;;4974693;28;20465;-77
2022/12/25 03:28:03;;;;;;;10.80;5.10;;;10.20;99.90;;;;;;4975237;28;20454;-77
2022/12/25 03:33:31;;;;;;;9.30;5.87;;;10.30;99.90;;;;;;4975286;28;20565;-77
2022/12/25 03:36:04;;;;;;;10.40;5.60;;;10.20;99.90;;;;;;4974683;28;20466;-77
2022/12/25 04:36:47;;;;;;;6.13;3.03;;;10.20;99.90;;;;;;4962756;28;20531;-77
2022/12/25 04:39:15;;;;;;;5.57;3.77;;;10.20;99.90;;;;;;4980179;28;20471;-77
2022/12/25 04:41:42;;;;;;;3.60;3.00;;;10.30;99.90;;;;;;4980572;28;20456;-77
2022/12/25 04:44:09;;;;;;;5.57;2.70;;;10.20;99.90;;;;;;4980902;28;20488;-77
2022/12/25 04:46:36;;;;;;;7.97;3.77;;;10.20;99.90;;;;;;4980021;28;20960;-77
2022/12/25 04:49:02;;;;;;;5.07;3.40;;;10.30;99.90;;;;;;4979951;28;20457;-77
2022/12/25 04:51:29;;;;;;;6.70;2.70;;;10.30;99.90;;;;;;4979915;28;20464;-77
2022/12/25 04:53:56;;;;;;;2.87;2.10;;;10.20;99.90;;;;;;4980044;28;20453;-77
2022/12/25 04:56:24;;;;;;;6.10;2.90;;;10.30;99.90;;;;;;4979318;28;20490;-77
2022/12/25 04:58:51;;;;;;;4.50;2.60;;;10.30;99.90;;;;;;4979092;28;20468;-77
2022/12/25 05:01:18;;;;;;;4.30;2.60;;;10.30;99.90;;;;;;4978400;28;20486;-77
2022/12/25 05:03:44;;;;;;;9.20;2.57;;;10.40;99.90;;;;;;4979143;28;20476;-77
2022/12/25 05:06:11;;;;;;;6.47;3.17;;;10.40;99.90;;;;;;4978370;28;20817;-78
2022/12/25 05:08:38;;;;;;;6.23;2.70;;;10.30;99.90;;;;;;4977840;28;20461;-78
2022/12/25 05:11:06;;;;;;;5.23;2.60;;;10.30;99.90;;;;;;4978483;28;20464;-77
2022/12/25 05:13:35;;;;;;;6.27;2.50;;;10.30;99.90;;;;;;4978245;28;20458;-77
2022/12/25 05:16:05;;;;;;;6.43;2.70;;;10.30;99.90;;;;;;4977457;28;20488;-77
2022/12/25 05:18:32;;;;;;;6.43;2.60;;;10.40;99.90;;;;;;4977791;28;20462;-77
2022/12/25 05:20:59;;;;;;;4.87;2.90;;;10.40;99.90;;;;;;4977641;28;20977;-77
2022/12/25 05:23:25;;;;;;;3.83;2.37;;;10.40;99.90;;;;;;4977524;28;20457;-77
2022/12/25 05:25:52;;;;;;;4.10;2.17;;;10.40;99.90;;;;;;4978218;28;20485;-78
2022/12/25 05:28:19;;;;;;;6.37;3.30;;;10.40;99.90;;;;;;4977954;28;20457;-77
2022/12/25 05:30:47;;;;;;;5.33;2.80;;;10.40;99.90;;;;;;4977746;28;20462;-77
2022/12/25 05:33:14;;;;;;;4.33;2.73;;;10.40;99.90;;;;;;4978377;28;20467;-77
2022/12/25 05:35:41;;;;;;;4.03;3.37;;;10.40;99.90;;;;;;4977199;28;20476;-78
2022/12/25 05:38:08;;;;;;;6.60;3.40;;;10.40;99.90;;;;;;4977577;28;20484;-77
2022/12/25 05:40:38;;;;;;;5.23;3.03;;;10.40;99.90;;;;;;4978260;28;20452;-77
2022/12/25 05:43:04;;;;;;;4.40;3.00;;;10.40;99.90;;;;;;4977736;28;20464;-78
2022/12/25 05:45:31;;;;;;;3.33;3.00;;;10.40;99.90;;;;;;4976792;28;20483;-77
2022/12/25 05:47:59;;;;;;;7.30;3.27;;;10.30;99.90;;;;;;4977708;28;20451;-77
2022/12/25 05:50:26;;;;;;;7.10;3.00;;;10.30;99.90;;;;;;4976941;28;20463;-77
2022/12/25 05:52:53;;;;;;;4.40;3.40;;;10.30;99.90;;;;;;4976467;28;20456;-77
2022/12/25 05:55:19;;;;;;;4.90;3.60;;;10.30;99.90;;;;;;4976657;28;20484;-77
2022/12/25 05:57:46;;;;;;;5.07;3.27;;;10.30;99.90;;;;;;4976564;28;20497;-77
2022/12/25 06:00:13;;;;;;;5.27;3.40;;;10.30;99.90;;;;;;4976488;28;20837;-77
2022/12/25 06:02:40;;;;;;;7.60;3.73;;;10.30;99.90;;;;;;4976220;28;20454;-77
2022/12/25 06:05:09;;;;;;;7.30;4.30;;;10.30;99.90;;;;;;4976137;28;20480;-77
2022/12/25 06:07:36;;;;;;;5.67;4.10;;;10.30;99.90;;;;;;4975986;28;20940;-77
2022/12/25 06:10:03;;;;;;;9.10;5.37;;;10.30;99.90;;;;;;4976135;28;20467;-77
2022/12/25 06:12:29;;;;;;;10.50;5.13;;;10.30;99.90;;;;;;4976228;28;20463;-77
2022/12/25 06:14:56;;;;;;;8.93;4.80;;;10.30;99.90;;;;;;4976003;28;20487;-77
2022/12/25 06:17:25;;;;;;;6.90;4.97;;;10.30;99.90;;;;;;4976057;28;20860;-77
2022/12/25 06:19:52;;;;;;;5.20;3.70;;;10.30;99.90;;;;;;4975791;28;20956;-78
2022/12/25 06:22:21;;;;;;;12.00;4.30;;;10.30;99.90;;;;;;4975701;28;20462;-77
2022/12/25 06:24:48;;;;;;;9.13;4.10;;;10.30;99.90;;;;;;4975664;28;20996;-77
2022/12/25 06:27:15;;;;;;;5.47;3.60;;;10.30;99.90;;;;;;4975875;28;20458;-77
2022/12/25 06:29:42;;;;;;;6.17;3.57;;;10.30;99.90;;;;;;4975789;28;20468;-77
2022/12/25 06:32:08;;;;;;;5.70;4.57;;;10.30;99.90;;;;;;4975643;28;20473;-77
2022/12/25 06:34:35;;;;;;;9.60;4.77;;;10.30;99.90;;;;;;4975694;28;20873;-77
2022/12/25 06:37:02;;;;;;;6.87;3.70;;;10.30;99.90;;;;;;4975690;28;20491;-77
2022/12/25 06:39:30;;;;;;;7.50;3.67;;;10.30;99.90;;;;;;4975688;28;20457;-77
2022/12/25 06:41:57;;;;;;;10.10;4.93;;;10.30;99.90;;;;;;4975471;28;20442;-77
2022/12/25 06:44:24;;;;;;;4.60;3.07;;;10.30;99.90;;;;;;4975319;28;21009;-77
2022/12/25 06:46:52;;;;;;;5.83;3.40;;;10.30;99.90;;;;;;4975568;28;20460;-77
2022/12/25 06:49:19;;;;;;;7.50;3.93;;;10.30;99.90;;;;;;4975395;28;20456;-77
2022/12/25 06:51:46;;;;;;;6.20;4.00;;;10.30;99.90;;;;;;4975157;28;20991;-77
2022/12/25 06:54:13;;;;;;;4.27;3.63;;;10.30;99.90;;;;;;4974395;28;20487;-77
2022/12/25 06:56:41;;;;;;;8.73;4.43;;;10.30;99.90;;;;;;4975172;28;20456;-77
2022/12/25 06:59:09;;;;;;;6.63;3.37;;;10.30;99.90;;;;;;4974843;28;20957;-77
2022/12/25 07:01:44;;;;;;;5.00;3.90;;;10.30;99.90;;;;;;4975191;28;20467;-77
2022/12/25 07:04:14;;;;;;;7.60;4.17;;;10.30;99.90;;;;;;4975167;28;20467;-77
2022/12/25 07:06:41;;;;;;;6.30;4.03;;;10.30;99.90;;;;;;4976244;28;20447;-77
2022/12/25 07:09:07;;;;;;;8.83;4.27;;;10.30;99.90;;;;;;4975121;28;20488;-78
2022/12/25 07:11:34;;;;;;;5.10;4.23;;;10.30;99.90;;;;;;4974712;28;20960;-78
2022/12/25 07:14:02;;;;;;;5.27;4.03;;;10.30;99.90;;;;;;4974948;28;20456;-77
2022/12/25 07:16:29;;;;;;;8.90;4.20;;;10.30;99.90;;;;;;4975109;28;20470;-77
2022/12/25 07:18:56;;;;;;;6.67;3.77;;;10.30;99.90;;;;;;4974598;28;21056;-77
2022/12/25 07:21:22;;;;;;;7.33;4.40;;;10.30;99.90;;;;;;4975176;28;20425;-77
2022/12/25 07:23:50;;;;;;;7.23;3.87;;;10.30;99.90;;;;;;4975416;28;20463;-77
2022/12/25 07:26:17;;;;;;;6.53;3.47;;;10.30;99.90;;;;;;4975424;28;20462;-77
2022/12/25 07:28:43;;;;;;;3.90;2.80;;;10.30;99.90;;;;;;4974863;28;20492;-77
2022/12/25 07:31:14;;;;;;;3.27;2.60;;;10.30;99.90;;;;;;4975235;28;20463;-77
2022/12/25 07:33:41;;;;;;;6.63;3.00;;;10.40;99.90;;;;;;4975155;28;20539;-77
2022/12/25 07:36:09;;;;;;;7.50;3.43;;;10.40;99.90;;;;;;4974648;28;20983;-77
2022/12/25 07:38:36;;;;;;;8.80;3.97;;;10.40;99.90;;;;;;4974404;28;21034;-77
2022/12/25 07:41:02;;;;;;;4.10;3.70;;;10.40;99.90;;;;;;4974916;28;20466;-78
2022/12/25 07:43:29;;;;;;;7.53;4.53;;;10.40;99.90;;;;;;4974844;28;20456;-78
2022/12/25 07:45:57;;;;;;;7.10;4.00;;;10.40;99.90;;;;;;4974340;28;21001;-78
2022/12/25 07:48:25;;;;;;;7.60;3.70;;;10.40;99.90;;;;;;4974403;28;20953;-77
2022/12/25 07:50:57;;;;;;;5.80;3.23;;;10.40;99.90;;;;;;4974365;28;21004;-77
2022/12/25 07:53:23;;;;;;;5.50;3.33;;;10.50;99.90;;;;;;4975198;28;20441;-78
2022/12/25 07:55:56;;;;;;;9.13;3.50;;;10.40;99.90;;;;;;4977792;28;20980;-77
2022/12/25 07:58:23;;;;;;;8.00;3.60;;;10.40;99.90;;;;;;4983628;28;20473;-77
2022/12/25 08:00:50;;;;;;;6.90;3.77;;;10.40;99.90;;;;;;4998335;28;20454;-77
2022/12/25 08:03:17;;;;;;;6.80;3.10;;;10.50;99.90;;;;;;4997545;28;20453;-77
2022/12/25 08:05:45;;;;;;;7.83;3.80;;;10.50;99.90;;;;;;4981699;28;20471;-79
2022/12/25 08:08:12;;;;;;;6.50;2.93;;;10.50;99.90;;;;;;4986265;28;20456;-77
2022/12/25 08:10:39;;;;;;;6.67;3.40;;;10.50;99.90;;;;;;4989553;28;20573;-77
2022/12/25 08:13:05;;;;;;;5.03;3.10;;;10.60;99.90;;;;;;4986542;28;20455;-77
2022/12/25 08:15:32;;;;;;;3.77;2.73;;;10.60;99.90;;;;;;4986945;28;20483;-77
2022/12/25 08:17:59;;;;;;;9.70;4.50;;;10.60;99.90;;;;;;4987168;28;20504;-77
2022/12/25 08:20:25;;;;;;;10.20;3.87;;;10.60;99.90;;;;;;4986698;28;20455;-78
2022/12/25 08:22:53;;;;;;;13.67;4.40;;;10.60;99.90;;;;;;4986682;28;20462;-78
2022/12/25 08:25:20;;;;;;;5.23;3.50;;;10.60;99.90;;;;;;4986193;28;20823;-78
2022/12/25 08:27:47;;;;;;;5.90;3.70;;;10.70;99.90;;;;;;4986158;28;20448;-78
2022/12/25 08:30:14;;;;;;;11.80;4.60;;;10.70;99.90;;;;;;4985861;28;20467;-77
2022/12/25 08:32:40;;;;;;;13.50;5.40;;;10.70;99.90;;;;;;4985145;28;20961;-78
2022/12/25 08:35:08;;;;;;;7.30;4.53;;;10.80;99.90;;;;;;4985343;28;20835;-78
2022/12/25 08:37:35;;;;;;;13.40;5.53;;;10.80;99.90;;;;;;4984880;28;20487;-78
2022/12/25 08:40:03;;;;;;;6.93;4.33;;;10.80;99.90;;;;;;4983912;28;20457;-78
2022/12/25 08:42:30;;;;;;;8.30;4.30;;;10.80;99.90;;;;;;4981571;28;20436;-77
2022/12/25 08:44:57;;;;;;;10.20;4.70;;;10.80;99.90;;;;;;4984338;28;20480;-77
2022/12/25 08:47:23;;;;;;;6.80;4.23;;;10.80;99.90;;;;;;4983953;28;20464;-77
2022/12/25 08:49:50;;;;;;;10.13;5.63;;;10.80;99.90;;;;;;4980797;28;20476;-78
2022/12/25 08:52:17;;;;;;;8.63;5.40;;;10.80;99.90;;;;;;4984129;28;20970;-78
2022/12/25 08:54:43;;;;;;;8.23;5.57;;;10.80;99.90;;;;;;4991204;28;20486;-78
2022/12/25 08:57:11;;;;;;;7.83;5.00;;;10.80;99.90;;;;;;4990012;28;20981;-78
2022/12/25 08:59:38;;;;;;;12.30;5.40;;;10.90;99.90;;;;;;4994333;28;20460;-78
2022/12/25 09:02:05;;;;;;;7.17;4.40;;;10.90;99.90;;;;;;4987555;28;20460;-79
2022/12/25 09:04:32;;;;;;;8.53;5.40;;;10.90;99.90;;;;;;4983467;28;21020;-79
2022/12/25 09:06:58;;;;;;;8.97;5.13;;;11.00;99.90;;;;;;4983351;28;20453;-78
2022/12/25 09:09:27;;;;;;;6.03;5.43;;;11.00;99.90;;;;;;4983483;28;20461;-78
2022/12/25 09:11:53;;;;;;;9.93;5.30;;;11.00;99.90;;;;;;4983636;28;20449;-78
2022/12/25 09:14:22;;;;;;;6.77;5.47;;;11.00;99.90;;;;;;4983779;28;20499;-78
2022/12/25 09:16:50;;;;;;;8.77;5.30;;;11.00;99.90;;;;;;4983111;28;20457;-78
2022/12/25 09:19:16;;;;;;;12.50;5.97;;;11.00;99.90;;;;;;4982773;28;20512;-78
2022/12/25 09:21:43;;;;;;;11.00;5.90;;;11.00;99.90;;;;;;4982040;28;20464;-79
2022/12/25 09:24:10;;;;;;;9.90;6.57;;;11.00;99.90;;;;;;4981304;28;20497;-79
2022/12/25 09:26:37;;;;;;;8.73;6.03;;;11.00;99.90;;;;;;4981775;28;20465;-79
2022/12/25 09:29:04;;;;;;;8.33;6.40;;;11.00;99.90;;;;;;4980558;28;20523;-79
2022/12/25 09:31:32;;;;;;;15.17;6.00;;;11.00;99.90;;;;;;4979186;28;20465;-79
2022/12/25 09:33:59;;;;;;;8.97;6.30;;;11.00;99.90;;;;;;4979300;28;20464;-78
2022/12/25 09:36:25;;;;;;;7.90;6.13;;;11.00;99.90;;;;;;4978741;28;20974;-78
2022/12/25 09:38:52;;;;;;;13.13;7.33;;;11.00;99.90;;;;;;4978311;28;20493;-78
2022/12/25 09:41:29;;;;;;;18.17;9.63;;;11.10;99.90;;;;;;4977989;28;20451;-79
2022/12/25 09:44:00;;;;;;;15.10;8.17;;;11.10;99.90;;;;;;4978201;28;20441;-79
2022/12/25 09:46:28;;;;;;;12.50;8.53;;;11.00;99.90;;;;;;4978163;28;20499;-79
2022/12/25 09:49:04;;;;;;;11.33;6.93;;;11.00;99.90;;;;;;4978383;28;20969;-79
2022/12/25 09:51:34;;;;;;;11.17;7.60;;;11.10;99.90;;;;;;4978082;28;20463;-79
2022/12/25 09:54:06;;;;;;;12.37;7.47;;;11.10;99.90;;;;;;4978023;28;20447;-79
2022/12/25 09:56:33;;;;;;;8.70;6.27;;;11.10;99.90;;;;;;4977660;28;20446;-79
2022/12/25 09:59:00;;;;;;;8.50;6.20;;;11.10;99.90;;;;;;4977684;28;20928;-78
2022/12/25 10:01:34;;;;;;;7.67;6.40;;;11.10;99.90;;;;;;4977621;28;20460;-78
2022/12/25 10:04:28;;;;;;;9.83;7.50;;;11.10;99.90;;;;;;4977537;28;20436;-79
2022/12/25 10:07:10;;;;;;;8.93;6.83;;;11.10;99.90;;;;;;4977076;28;20438;-79
2022/12/25 10:09:47;;;;;;;8.30;6.43;;;11.20;99.90;;;;;;4978095;28;20431;-79
2022/12/25 10:12:29;;;;;;;11.87;8.90;;;11.20;99.90;;;;;;4976933;28;20450;-78
2022/12/25 10:15:09;;;;;;;9.60;8.60;;;11.20;99.90;;;;;;4976400;28;21024;-78
2022/12/25 10:17:45;;;;;;;13.73;11.40;;;11.20;99.90;;;;;;4976991;28;20441;-80
2022/12/25 10:20:22;;;;;;;19.40;17.40;;;11.30;99.90;;;;;;4977083;28;20467;-79
2022/12/25 10:22:53;;;;;;;15.83;14.33;;;11.30;99.90;;;;;;4977028;28;20481;-79
2022/12/25 10:25:22;;;;;;;14.53;10.27;;;11.30;99.90;;;;;;4976175;28;20990;-78
2022/12/25 10:27:52;;;;;;;10.83;8.20;;;11.30;99.90;;;;;;4977038;28;20464;-79
2022/12/25 10:30:22;;;;;;;11.10;8.77;;;11.30;99.90;;;;;;4975997;28;20451;-79
2022/12/25 10:32:51;;;;;;;13.57;8.83;;;11.30;99.90;;;;;;4976727;28;20457;-79
2022/12/25 10:35:21;;;;;;;10.67;7.60;;;11.30;99.90;;;;;;4977509;28;20492;-79
2022/12/25 10:37:54;;;;;;;13.50;8.27;;;11.40;99.90;;;;;;4977337;28;20457;-79
2022/12/25 10:40:30;;;;;;;17.93;11.33;;;11.40;99.90;;;;;;4979988;28;20480;-79
2022/12/25 10:43:03;;;;;;;12.30;9.13;;;11.40;99.90;;;;;;4993823;28;20437;-78
2022/12/25 10:45:30;;;;;;;14.70;9.70;;;11.40;99.90;;;;;;4992619;28;20482;-78
2022/12/25 10:48:04;;;;;;;11.73;7.93;;;11.40;99.90;;;;;;4979925;28;20445;-78
2022/12/25 10:50:33;;;;;;;11.83;7.63;;;11.50;99.90;;;;;;4975965;28;20485;-78
2022/12/25 10:53:03;;;;;;;14.63;13.23;;;11.50;99.90;;;;;;4975316;28;20844;-79
2022/12/25 10:55:30;;;;;;;12.87;9.63;;;11.50;99.90;;;;;;4975121;28;20480;-80
2022/12/25 10:57:57;;;;;;;11.00;8.93;;;11.50;99.90;;;;;;4975902;28;20460;-79
2022/12/25 11:00:27;;;;;;;13.03;9.27;;;11.50;99.90;;;;;;4975850;28;20468;-79
2022/12/25 11:02:54;;;;;;;12.40;9.17;;;11.60;99.90;;;;;;4975913;28;20457;-80
2022/12/25 11:05:27;;;;;;;10.93;8.50;;;11.60;99.90;;;;;;4975618;28;20469;-79
2022/12/25 11:07:55;;;;;;;11.50;10.50;;;11.60;99.90;;;;;;4975919;28;20449;-79
2022/12/25 11:10:31;;;;;;;12.00;10.87;;;11.60;99.90;;;;;;4976191;28;20875;-78
2022/12/25 11:12:58;;;;;;;11.20;10.13;;;11.60;99.90;;;;;;4975950;28;20940;-79
2022/12/25 11:15:37;;;;;;;12.03;9.97;;;11.70;99.90;;;;;;4976242;28;20466;-78
2022/12/25 11:18:16;;;;;;;8.43;7.50;;;11.70;99.90;;;;;;4976849;28;20445;-79
2022/12/25 11:20:49;;;;;;;9.00;6.80;;;11.70;99.90;;;;;;4976761;28;20453;-79
2022/12/25 11:23:19;;;;;;;7.90;6.40;;;11.70;99.90;;;;;;4976676;28;20481;-79
2022/12/25 11:25:55;;;;;;;8.10;7.30;;;11.70;99.90;;;;;;4976249;28;20488;-79
2022/12/25 11:28:21;;;;;;;7.40;6.43;;;11.80;99.90;;;;;;4974897;28;20440;-79
2022/12/25 11:30:52;;;;;;;7.23;6.20;;;11.80;99.90;;;;;;4975223;28;20829;-79
2022/12/25 11:33:23;;;;;;;8.13;6.43;;;11.90;99.90;;;;;;4974591;28;20540;-78
2022/12/25 11:35:52;;;;;;;7.93;7.20;;;11.90;99.90;;;;;;4974919;28;20474;-78
2022/12/25 11:38:23;;;;;;;12.50;7.53;;;11.90;99.90;;;;;;4974744;28;20527;-78
2022/12/25 11:40:52;;;;;;;10.43;6.87;;;11.90;99.90;;;;;;4974759;28;20438;-78
2022/12/25 11:43:24;;;;;;;7.37;6.23;;;11.80;99.90;;;;;;4974649;28;20458;-79
2022/12/25 11:45:55;;;;;;;7.80;6.37;;;11.80;99.90;;;;;;4974726;28;20496;-77
2022/12/25 11:48:28;;;;;;;8.37;7.60;;;11.70;99.90;;;;;;4974652;28;20440;-78
2022/12/25 11:50:58;;;;;;;7.10;5.80;;;11.70;99.90;;;;;;4975212;28;20449;-77
2022/12/25 11:53:31;;;;;;;6.83;6.23;;;11.70;99.90;;;;;;4974609;28;20461;-77
2022/12/25 11:56:01;;;;;;;6.80;5.83;;;11.70;99.90;;;;;;4974572;28;20473;-77
2022/12/25 11:58:32;;;;;;;7.60;5.70;;;11.70;99.90;;;;;;4974462;28;20489;-77
2022/12/25 12:01:02;;;;;;;6.93;6.10;;;11.70;99.90;;;;;;4974575;28;20932;-78
2022/12/25 12:03:33;;;;;;;10.23;6.10;;;11.70;99.90;;;;;;4974749;28;20429;-77
2022/12/25 12:06:03;;;;;;;12.10;6.90;;;11.70;99.90;;;;;;4974976;28;20468;-77
2022/12/25 12:08:32;;;;;;;7.37;5.83;;;11.70;99.90;;;;;;4974604;28;20958;-78
2022/12/25 12:11:18;;;;;;;6.27;5.67;;;11.70;99.90;;;;;;4975001;28;20460;-78
2022/12/25 12:13:56;;;;;;;6.40;5.40;;;11.70;99.90;;;;;;4974600;28;20452;-78
2022/12/25 12:16:23;;;;;;;6.60;6.00;;;11.70;99.90;;;;;;4976336;28;20418;-78
2022/12/25 12:18:50;;;;;;;6.83;5.90;;;11.70;99.90;;;;;;4974652;28;20968;-77
2022/12/25 12:21:22;;;;;;;8.07;6.57;;;11.70;99.90;;;;;;4974662;28;20453;-77
2022/12/25 12:23:55;;;;;;;7.83;6.90;;;11.70;99.90;;;;;;4974006;28;20943;-77
2022/12/25 12:26:23;;;;;;;7.60;6.80;;;11.60;99.90;;;;;;4974947;28;20454;-77
2022/12/25 12:28:52;;;;;;;8.10;7.03;;;11.60;99.90;;;;;;4974250;28;20445;-78
2022/12/25 12:31:19;;;;;;;9.37;7.43;;;11.60;99.90;;;;;;4974125;28;20465;-77
2022/12/25 12:33:52;;;;;;;10.20;6.23;;;11.60;99.90;;;;;;4974376;28;20451;-77
2022/12/25 12:36:21;;;;;;;7.73;7.00;;;11.60;99.90;;;;;;4975153;28;20447;-77
2022/12/25 12:38:50;;;;;;;8.47;7.60;;;11.60;99.90;;;;;;4974049;28;20485;-77
2022/12/25 12:41:17;;;;;;;7.43;6.70;;;11.60;99.90;;;;;;4974185;28;20463;-77
2022/12/25 12:43:48;;;;;;;12.40;7.83;;;11.60;99.90;;;;;;4974130;28;20515;-77
2022/12/25 12:46:18;;;;;;;10.97;7.37;;;11.60;99.90;;;;;;4974998;28;20535;-78
2022/12/25 12:48:47;;;;;;;9.93;8.93;;;11.60;99.90;;;;;;4974089;28;20468;-77
2022/12/25 12:51:27;;;;;;;10.50;8.93;;;11.60;99.90;;;;;;4974102;28;20464;-77
2022/12/25 12:54:17;;;;;;;11.57;8.77;;;11.70;99.90;;;;;;4976915;28;20456;-78
2022/12/25 12:56:55;;;;;;;10.80;9.67;;;11.70;99.90;;;;;;4977781;28;20434;-77
2022/12/25 12:59:22;;;;;;;11.30;9.73;;;11.70;99.90;;;;;;4977354;28;20505;-77
2022/12/25 13:02:01;;;;;;;10.60;9.50;;;11.70;99.90;;;;;;4977616;28;20450;-78
2022/12/25 13:04:58;;;;;;;10.20;9.30;;;11.70;99.90;;;;;;4977010;28;21020;-79
2022/12/25 13:07:42;;;;;;;11.13;9.07;;;11.80;99.90;;;;;;4954869;28;20464;-77
2022/12/25 13:10:21;;;;;;;11.73;10.53;;;11.80;99.90;;;;;;4977249;28;20775;-78
2022/12/25 13:12:53;;;;;;;11.17;9.90;;;11.80;99.90;;;;;;4977056;28;20440;-77
2022/12/25 13:15:22;;;;;;;10.60;9.53;;;11.80;99.90;;;;;;4977170;28;20859;-77
2022/12/25 13:17:49;;;;;;;11.60;10.40;;;11.80;99.90;;;;;;4977122;28;20449;-78
2022/12/25 13:20:23;;;;;;;14.53;11.20;;;11.80;99.90;;;;;;4976943;28;20489;-77
2022/12/25 13:22:50;;;;;;;16.10;11.40;;;11.80;99.90;;;;;;4976846;28;20949;-77
2022/12/25 13:25:21;;;;;;;15.87;11.73;;;11.80;99.90;;;;;;4976952;28;20481;-77
2022/12/25 13:27:55;;;;;;;14.17;11.80;;;11.80;99.90;;;;;;4976962;28;20457;-77
2022/12/25 13:30:23;;;;;;;15.40;11.80;;;11.80;99.90;;;;;;4977018;28;20472;-77
2022/12/25 13:32:50;;;;;;;12.13;10.93;;;11.90;99.90;;;;;;4976919;28;20477;-77
2022/12/25 13:35:22;;;;;;;16.33;11.93;;;11.90;99.90;;;;;;4976438;28;21032;-77
2022/12/25 13:37:49;;;;;;;16.20;11.80;;;11.90;99.90;;;;;;4976842;28;20437;-77
2022/12/25 13:40:25;;;;;;;12.50;10.40;;;11.90;99.90;;;;;;4976798;28;20829;-77
2022/12/25 13:42:55;;;;;;;12.07;10.93;;;11.90;99.90;;;;;;4976732;28;20437;-77
2022/12/25 13:45:24;;;;;;;12.73;10.90;;;11.90;99.90;;;;;;4976302;28;20540;-77
2022/12/25 13:47:52;;;;;;;11.90;9.93;;;11.90;99.90;;;;;;4976822;28;20840;-77
2022/12/25 13:50:23;;;;;;;14.33;11.77;;;11.90;99.90;;;;;;4976860;28;20470;-79
2022/12/25 13:52:50;;;;;;;16.03;13.00;;;11.90;99.90;;;;;;4976732;28;20954;-79
2022/12/25 13:55:20;;;;;;;21.70;16.97;;;11.90;99.90;;;;;;4977136;28;20477;-79
2022/12/25 13:57:52;;;;;;;21.07;15.93;;;11.90;99.90;;;;;;4976728;28;20442;-79
2022/12/25 14:00:21;;;;;;;17.20;14.00;;;11.90;99.90;;;;;;4977030;28;20477;-78
2022/12/25 14:02:48;;;;;;;17.70;14.47;;;11.90;99.90;;;;;;4977454;28;20852;-78
2022/12/25 14:05:27;;;;;;;19.93;14.20;;;11.90;99.90;;;;;;4977060;28;20851;-78
2022/12/25 14:07:56;;;;;;;12.10;10.63;;;11.90;99.90;;;;;;4977534;28;20438;-78
2022/12/25 14:10:25;;;;;;;13.93;10.07;;;11.90;99.90;;;;;;4977551;28;20456;-80
2022/12/25 14:12:55;;;;;;;12.00;8.70;;;11.90;99.90;;;;;;4977152;28;20457;-79
2022/12/25 14:15:23;;;;;;;12.90;8.40;;;11.90;99.90;;;;;;4977117;28;20481;-78
2022/12/25 14:17:51;;;;;;;11.60;7.90;;;12.00;99.90;;;;;;4978316;28;20442;-79
2022/12/25 14:20:23;;;;;;;9.50;8.53;;;12.00;99.90;;;;;;4976456;28;21017;-79
2022/12/25 14:22:52;;;;;;;14.03;8.37;;;12.00;99.90;;;;;;4976874;28;20457;-79
2022/12/25 14:25:19;;;;;;;10.57;8.60;;;11.90;99.90;;;;;;4976580;28;20485;-79
2022/12/25 14:27:50;;;;;;;11.83;9.27;;;12.00;99.90;;;;;;4976809;28;20461;-78
2022/12/25 14:30:18;;;;;;;16.17;9.33;;;12.00;99.90;;;;;;4976316;28;20446;-78
2022/12/25 14:32:49;;;;;;;13.40;10.30;;;11.90;99.90;;;;;;4975727;28;20469;-79
2022/12/25 14:35:17;;;;;;;14.37;9.50;;;12.00;99.90;;;;;;4976821;28;20505;-79